Observations de surface / France / LFRZ

Québec | Canada | États-Unis | France | UK | Europe | Ailleurs

Affichage: Infos & localisation pour LFRZ | Aide pour décoder les METARs

LFRZ ST. NAZAIRE/MONTOIR -- FR
Raw surface observations for station LFRZ
LFRZ 211700Z AUTO 06006KT 8000 -SN NSC 02/M03 Q1024 NOSIG=
LFRZ 211630Z AUTO 04007KT 9000 NSC 04/M03 Q1023 NOSIG=
LFRZ 211600Z AUTO 05007KT CAVOK 04/M03 Q1023 NOSIG=
LFRZ 211530Z AUTO 05006KT CAVOK 06/M02 Q1023 NOSIG=
LFRZ 211500Z AUTO 04006KT 010V070 CAVOK 06/M02 Q1024 NOSIG=
LFRZ 211430Z AUTO 04007KT 010V070 CAVOK 06/M02 Q1024 NOSIG=
LFRZ 211400Z AUTO 04007KT 360V060 9000 NSC 05/M02 Q1024 NOSIG=
LFRZ 211330Z AUTO 03006KT 350V060 8000 NSC 05/M02 Q1024 NOSIG=
LFRZ 211300Z AUTO 03006KT 360V070 8000 NSC 05/M02 Q1025 NOSIG=
LFRZ 211230Z AUTO 05004KT 360V090 8000 NSC 04/M02 Q1025 NOSIG=
LFRZ 211200Z AUTO 02004KT 350V060 7000 NSC 03/M02 Q1025 NOSIG=
LFRZ 211130Z AUTO 03004KT 360V090 6000 NSC 02/M02 Q1025 NOSIG=
LFRZ 211030Z AUTO 04003KT 360V090 5000 BR NSC M01/M04 Q1026 NOSIG=
LFRZ 211000Z AUTO 02004KT 4900 BR NSC M02/M04 Q1026 BECMG 8000 BR=
LFRZ 210930Z AUTO 04004KT 4200 BR NSC M03/M05 Q1026 BECMG 8000 NSW=
LFRZ 210830Z AUTO 05003KT 3700 BR NSC M05/M07 Q1026 BECMG 8000 NSW=
LFRZ 210800Z AUTO 04003KT 3700 BR NSC M06/M07 Q1026 BECMG 8000 NSW=
LFRZ 210730Z AUTO 03003KT 360V070 4700 BR NSC M05/M07 Q1026 BECMG 8000 NSW=
LFRZ 210700Z AUTO 02006KT 4900 BR NSC M05/M07 Q1026 NOSIG=
LFRZ 210630Z AUTO 03004KT 4800 BR NSC M05/M07 Q1026 NOSIG=
LFRZ 210600Z AUTO 03004KT 4700 BR NSC M05/M07 Q1025 NOSIG=
LFRZ 210530Z AUTO 04005KT 4700 BR NSC M05/M06 Q1026 NOSIG=
LFRZ 210500Z AUTO 03005KT 4700 BR NSC M05/M06 Q1026 NOSIG=
LFRZ 210430Z AUTO 04005KT 4800 BR NSC M05/M06 Q1026 NOSIG=
LFRZ 210400Z AUTO 01004KT 4700 BR NSC M05/M06 Q1026 NOSIG=
LFRZ 210330Z AUTO 02005KT 4800 BR NSC M05/M06 Q1026 NOSIG=
LFRZ 210300Z AUTO 02005KT 4900 BR NSC M04/M06 Q1026 NOSIG=
LFRZ 210230Z AUTO 02005KT 4700 BR NSC M05/M06 Q1026 NOSIG=
LFRZ 210200Z AUTO 35002KT 4400 BR NSC M05/M07 Q1026 NOSIG=
LFRZ 210130Z AUTO 35004KT 4900 BR NSC M05/M07 Q1026 NOSIG=
LFRZ 210100Z AUTO 36004KT 5000 BR NSC M05/M06 Q1027 NOSIG=
LFRZ 210030Z AUTO 35004KT 5000 BR NSC M04/M06 Q1027 NOSIG=
LFRZ 210000Z AUTO VRB02KT 5000 BR NSC M04/M06 Q1027 NOSIG=
LFRZ 202330Z AUTO 04003KT 5000 BR NSC M04/M06 Q1027 NOSIG=
LFRZ 202300Z AUTO 03003KT 5000 BR NSC M04/M06 Q1027 NOSIG=
LFRZ 202230Z AUTO 04003KT 5000 BR NSC M04/M05 Q1027 NOSIG=
LFRZ 202200Z AUTO 04004KT 5000 BR NSC M03/M06 Q1027 NOSIG=
LFRZ 202130Z AUTO 03005KT 360V060 6000 NSC M03/M05 Q1027 NOSIG=
LFRZ 202100Z AUTO 03003KT 6000 NSC M03/M05 Q1027 NOSIG=
LFRZ 202030Z AUTO 05004KT 6000 NSC M03/M05 Q1027 NOSIG=
LFRZ 202000Z AUTO 05005KT 6000 NSC M03/M05 Q1027 NOSIG=
LFRZ 201930Z AUTO 06005KT 6000 NSC M03/M06 Q1027 NOSIG=
LFRZ 201900Z AUTO 06005KT 6000 NSC M03/M05 Q1027 NOSIG=
LFRZ 201830Z AUTO 05004KT 6000 NSC M03/M05 Q1027 NOSIG=
LFRZ 201800Z AUTO 03004KT 7000 NSC M01/M04 Q1027 NOSIG=
LFRZ 201730Z AUTO 06005KT 7000 NSC M02/M05 Q1027 NOSIG=
LFRZ 201700Z AUTO 07005KT 6000 NSC M02/M05 Q1027 NOSIG=